createdAt,value
2018-07-19T00:00:08.397Z,5.43
2018-07-19T00:02:37.140Z,4.10
2018-07-19T00:05:05.861Z,4.27
2018-07-19T00:07:34.497Z,4.73
2018-07-19T00:10:03.048Z,4.53
2018-07-19T00:12:31.772Z,4.67
2018-07-19T00:15:00.557Z,4.83
2018-07-19T00:17:29.194Z,5.37
2018-07-19T00:19:57.858Z,5.00
2018-07-19T00:22:26.641Z,5.10
2018-07-19T00:24:55.374Z,4.07
2018-07-19T00:27:24.344Z,4.87
2018-07-19T00:29:53.037Z,4.97
2018-07-19T00:32:21.759Z,4.93
2018-07-19T00:34:50.381Z,5.30
2018-07-19T00:37:19.159Z,4.60
2018-07-19T00:39:47.868Z,4.83
2018-07-19T00:42:16.502Z,5.37
2018-07-19T00:44:45.106Z,4.90
2018-07-19T00:47:14.042Z,5.10
2018-07-19T00:49:42.848Z,4.53
2018-07-19T00:52:11.767Z,4.63
2018-07-19T00:54:40.507Z,4.60
2018-07-19T00:57:09.351Z,4.07
2018-07-19T00:59:38.268Z,4.27
2018-07-19T01:02:07.145Z,4.53
2018-07-19T01:04:35.961Z,4.97
2018-07-19T01:07:04.773Z,5.33
2018-07-19T01:09:33.704Z,5.03
2018-07-19T01:12:02.556Z,4.57
2018-07-19T01:14:31.298Z,5.53
2018-07-19T01:17:00.116Z,5.80
2018-07-19T01:19:28.998Z,5.23
2018-07-19T01:21:57.742Z,5.10
2018-07-19T01:24:26.558Z,5.47
2018-07-19T01:26:55.259Z,5.80
2018-07-19T01:29:24.044Z,5.70
2018-07-19T01:31:52.836Z,5.53
2018-07-19T01:34:21.606Z,6.00
2018-07-19T01:36:50.312Z,5.97
2018-07-19T01:39:19.023Z,5.43
2018-07-19T01:42:24.476Z,5.00
2018-07-19T01:44:53.162Z,5.13
2018-07-19T01:47:22.188Z,5.23
2018-07-19T01:49:51.195Z,5.37
2018-07-19T01:52:19.923Z,5.40
2018-07-19T01:54:48.845Z,5.13
2018-07-19T01:57:18.532Z,4.90
2018-07-19T01:59:47.891Z,5.60
2018-07-19T02:02:16.738Z,5.73
2018-07-19T02:04:45.631Z,5.53
2018-07-19T02:07:14.407Z,5.37
2018-07-19T02:09:43.305Z,5.07
2018-07-19T02:12:12.089Z,5.20
2018-07-19T02:14:41.194Z,5.60
2018-07-19T02:17:10.144Z,5.17
2018-07-19T02:19:38.963Z,5.07
2018-07-19T02:22:07.774Z,5.90
2018-07-19T02:24:36.608Z,5.67
2018-07-19T02:27:05.494Z,5.30
2018-07-19T02:29:35.642Z,5.37
2018-07-19T02:32:08.250Z,4.90
2018-07-19T02:34:37.085Z,5.20
2018-07-19T02:37:05.953Z,5.07
2018-07-19T02:39:34.778Z,5.10
2018-07-19T02:42:03.517Z,5.30
2018-07-19T02:44:32.362Z,5.20
2018-07-19T02:47:01.145Z,4.70
2018-07-19T02:49:29.993Z,4.93
2018-07-19T02:51:58.735Z,5.10
2018-07-19T02:54:27.425Z,4.87
2018-07-19T02:56:56.246Z,5.30
2018-07-19T02:59:24.937Z,5.17
2018-07-19T03:01:53.717Z,5.57
2018-07-19T03:04:22.509Z,5.20
2018-07-19T03:06:51.270Z,4.90
2018-07-19T03:09:20.011Z,5.37
2018-07-19T03:11:48.815Z,5.03
2018-07-19T03:14:17.675Z,4.77
2018-07-19T03:16:46.552Z,5.10
2018-07-19T03:19:15.517Z,5.43
2018-07-19T03:21:44.517Z,5.03
2018-07-19T03:24:13.280Z,5.43
2018-07-19T03:26:41.999Z,5.60
2018-07-19T03:29:10.772Z,4.87
2018-07-19T03:31:39.708Z,5.40
2018-07-19T03:34:08.511Z,5.40
2018-07-19T03:36:37.490Z,5.60
2018-07-19T03:39:08.371Z,5.30
2018-07-19T03:41:37.152Z,4.90
2018-07-19T03:44:06.128Z,4.57
2018-07-19T03:46:34.886Z,5.30
2018-07-19T03:49:03.801Z,5.93
2018-07-19T03:51:32.579Z,5.60
2018-07-19T03:54:01.328Z,5.53
2018-07-19T03:56:30.147Z,4.87
2018-07-19T03:58:58.854Z,5.83
2018-07-19T04:01:27.750Z,6.07
2018-07-19T04:03:56.574Z,5.07
2018-07-19T04:06:25.469Z,5.47
2018-07-19T04:08:54.302Z,5.37
2018-07-19T04:11:23.185Z,5.80
2018-07-19T04:13:52.119Z,5.27
2018-07-19T04:16:20.901Z,5.27
2018-07-19T04:18:49.737Z,5.13
2018-07-19T04:21:18.559Z,5.17
2018-07-19T04:23:48.432Z,5.87
2018-07-19T04:26:17.285Z,5.50
2018-07-19T04:28:46.006Z,5.33
2018-07-19T04:31:14.822Z,5.40
2018-07-19T04:33:43.650Z,5.50
2018-07-19T04:36:12.544Z,5.07
2018-07-19T04:38:41.325Z,5.13
2018-07-19T04:41:10.282Z,5.20
2018-07-19T04:43:39.129Z,5.50
2018-07-19T04:46:08.097Z,5.30
2018-07-19T04:48:36.925Z,5.20
2018-07-19T04:51:05.829Z,5.20
2018-07-19T04:53:34.855Z,6.20
2018-07-19T04:56:03.778Z,5.70
2018-07-19T04:58:32.739Z,5.30
2018-07-19T05:01:01.613Z,6.00
2018-07-19T05:03:30.636Z,5.63
2018-07-19T05:05:59.408Z,5.50
2018-07-19T05:08:28.431Z,5.57
2018-07-19T05:10:57.535Z,5.73
2018-07-19T05:13:26.614Z,6.10
2018-07-19T05:15:56.167Z,5.73
2018-07-19T05:18:25.095Z,5.50
2018-07-19T05:20:53.928Z,5.80
2018-07-19T05:23:23.807Z,5.87
2018-07-19T05:25:52.783Z,6.10
2018-07-19T05:28:21.793Z,5.83
2018-07-19T05:30:50.678Z,5.53
2018-07-19T05:33:19.567Z,5.70
2018-07-19T05:35:48.560Z,6.03
2018-07-19T05:38:17.547Z,6.00
2018-07-19T05:40:46.658Z,5.03
2018-07-19T05:43:15.552Z,6.00
2018-07-19T05:45:44.465Z,5.50
2018-07-19T05:48:13.272Z,5.80
2018-07-19T05:50:42.127Z,6.10
2018-07-19T05:53:11.134Z,6.00
2018-07-19T05:55:40.134Z,6.17
2018-07-19T05:58:09.614Z,5.53
2018-07-19T06:00:38.414Z,5.70
2018-07-19T06:03:07.419Z,6.23
2018-07-19T06:05:36.144Z,5.93
2018-07-19T06:08:05.003Z,6.30
2018-07-19T06:10:33.665Z,6.23
2018-07-19T06:13:02.815Z,6.50
2018-07-19T06:15:31.599Z,6.10
2018-07-19T06:18:00.502Z,6.80
2018-07-19T06:20:29.274Z,6.23
2018-07-19T06:22:58.166Z,6.37
2018-07-19T06:25:26.900Z,6.10
2018-07-19T06:27:55.914Z,6.00
2018-07-19T06:30:24.604Z,6.57
2018-07-19T06:32:53.440Z,6.33
2018-07-19T06:35:22.301Z,6.33
2018-07-19T06:37:51.083Z,6.23
2018-07-19T06:40:19.868Z,6.53
2018-07-19T06:42:48.592Z,6.33
2018-07-19T06:45:17.755Z,6.20
2018-07-19T06:47:46.847Z,6.17
2018-07-19T06:50:15.464Z,6.80
2018-07-19T06:52:45.418Z,6.10
2018-07-19T06:55:14.327Z,6.93
2018-07-19T06:57:43.158Z,6.47
2018-07-19T07:00:13.905Z,5.33
2018-07-19T07:02:43.232Z,6.17
2018-07-19T07:05:12.197Z,6.43
2018-07-19T07:07:41.123Z,5.27
2018-07-19T07:10:10.106Z,5.23
2018-07-19T07:12:38.873Z,5.70
2018-07-19T07:15:08.022Z,4.80
2018-07-19T07:17:36.734Z,5.00
2018-07-19T07:20:05.806Z,5.53
2018-07-19T07:22:34.896Z,4.20
2018-07-19T07:25:03.664Z,4.20
2018-07-19T07:27:32.421Z,4.40
2018-07-19T07:30:01.133Z,4.03
2018-07-19T07:32:30.100Z,5.10
2018-07-19T07:34:59.106Z,3.67
2018-07-19T07:37:28.029Z,4.30
2018-07-19T07:39:56.651Z,4.37
2018-07-19T07:42:25.520Z,4.70
2018-07-19T07:44:54.311Z,4.30
2018-07-19T07:47:24.245Z,4.50
2018-07-19T07:49:52.942Z,4.10
2018-07-19T07:52:21.546Z,4.57
2018-07-19T07:54:50.186Z,4.63
2018-07-19T07:57:18.908Z,4.13
2018-07-19T07:59:47.507Z,3.83
2018-07-19T08:02:16.081Z,3.87
2018-07-19T08:04:44.958Z,4.00
2018-07-19T08:07:13.711Z,3.27
2018-07-19T08:09:42.231Z,3.67
2018-07-19T08:12:11.033Z,4.77
2018-07-19T08:14:39.807Z,4.10
2018-07-19T08:17:08.379Z,4.43
2018-07-19T08:19:36.982Z,3.57
2018-07-19T08:22:05.506Z,4.40
2018-07-19T08:24:34.246Z,3.60
2018-07-19T08:27:02.786Z,3.60
2018-07-19T08:29:31.355Z,3.43
2018-07-19T08:32:00.707Z,3.40
2018-07-19T08:34:29.329Z,3.43
2018-07-19T08:36:57.929Z,4.70
2018-07-19T08:39:26.563Z,3.53
2018-07-19T08:41:55.222Z,3.40
2018-07-19T08:44:23.861Z,3.70
2018-07-19T08:46:52.458Z,3.83
2018-07-19T08:49:21.088Z,4.00
2018-07-19T08:51:49.667Z,4.10
2018-07-19T08:54:18.178Z,4.05
2018-07-19T08:56:46.711Z,3.80
2018-07-19T08:59:15.332Z,3.47
2018-07-19T09:01:43.973Z,3.40
2018-07-19T09:04:12.577Z,3.33
2018-07-19T09:06:41.085Z,3.42
2018-07-19T09:09:10.396Z,3.30
2018-07-19T09:11:39.280Z,3.77
2018-07-19T09:14:07.880Z,3.27
2018-07-19T09:16:36.454Z,4.12
2018-07-19T09:19:04.993Z,4.45
2018-07-19T09:21:33.517Z,3.80
2018-07-19T09:24:02.084Z,4.03
2018-07-19T09:26:30.854Z,3.42
2018-07-19T09:28:59.500Z,3.92
2018-07-19T09:31:27.993Z,3.80
2018-07-19T09:33:56.528Z,3.40
2018-07-19T09:36:25.128Z,3.80
2018-07-19T09:38:53.741Z,3.65
2018-07-19T09:41:22.288Z,3.87
2018-07-19T09:43:51.034Z,3.45
2018-07-19T09:46:19.921Z,3.60
2018-07-19T09:48:48.727Z,3.75
2018-07-19T09:51:17.445Z,3.70
2018-07-19T09:53:46.097Z,3.80
2018-07-19T09:56:14.804Z,3.50
2018-07-19T09:58:43.392Z,3.85
2018-07-19T10:01:21.455Z,3.80
2018-07-19T10:03:51.455Z,3.52
2018-07-19T10:06:20.338Z,3.60
2018-07-19T10:08:49.078Z,3.77
2018-07-19T10:11:17.688Z,3.65
2018-07-19T10:13:46.917Z,3.80
2018-07-19T10:16:15.518Z,3.37
2018-07-19T10:18:44.214Z,3.40
2018-07-19T10:21:12.778Z,3.40
2018-07-19T10:23:41.447Z,4.08
2018-07-19T10:26:10.133Z,3.75
2018-07-19T10:28:38.730Z,4.00
2018-07-19T10:31:07.325Z,3.90
2018-07-19T10:33:35.847Z,3.70
2018-07-19T10:36:04.479Z,3.20
2018-07-19T10:38:33.392Z,3.47
2018-07-19T10:41:02.210Z,3.80
2018-07-19T10:43:30.883Z,3.65
2018-07-19T10:45:59.502Z,3.92
2018-07-19T10:48:28.036Z,3.52
2018-07-19T10:50:56.672Z,3.58
2018-07-19T10:53:25.266Z,4.25
2018-07-19T10:55:54.019Z,3.90
2018-07-19T10:58:22.586Z,3.80
2018-07-19T11:00:51.200Z,4.83
2018-07-19T11:03:19.794Z,3.90
2018-07-19T11:05:48.445Z,3.92
2018-07-19T11:08:17.082Z,3.65
2018-07-19T11:10:45.746Z,3.45
2018-07-19T11:13:14.305Z,5.65
2018-07-19T11:15:43.034Z,3.95
2018-07-19T11:18:11.569Z,4.55
2018-07-19T11:20:40.162Z,3.85
2018-07-19T11:23:08.860Z,3.67
2018-07-19T11:25:37.428Z,3.90
2018-07-19T11:28:06.068Z,3.70
2018-07-19T11:30:34.798Z,3.92
2018-07-19T11:33:03.364Z,3.90
2018-07-19T11:35:31.995Z,4.05
2018-07-19T11:38:00.616Z,3.98
2018-07-19T11:40:29.269Z,3.33
2018-07-19T11:42:57.805Z,3.58
2018-07-19T11:45:26.442Z,3.80
2018-07-19T11:47:55.075Z,3.90
2018-07-19T11:50:23.728Z,3.90
2018-07-19T11:52:52.256Z,4.05
2018-07-19T11:55:20.871Z,3.37
2018-07-19T11:57:49.381Z,3.90
2018-07-19T12:00:17.907Z,3.72
2018-07-19T12:02:46.490Z,3.55
2018-07-19T12:05:15.159Z,4.10
2018-07-19T12:07:43.741Z,4.05
2018-07-19T12:10:12.327Z,3.67
2018-07-19T12:12:40.973Z,5.08
2018-07-19T12:15:09.541Z,3.58
2018-07-19T12:17:38.079Z,3.92
2018-07-19T12:20:06.810Z,3.70
2018-07-19T12:22:35.417Z,3.90
2018-07-19T12:25:04.042Z,3.80
2018-07-19T12:27:32.635Z,3.83
2018-07-19T12:30:01.248Z,3.87
2018-07-19T12:32:29.881Z,3.80
2018-07-19T12:34:58.464Z,3.70
2018-07-19T12:37:27.272Z,4.00
2018-07-19T12:39:56.174Z,4.03
2018-07-19T12:42:24.863Z,3.72
2018-07-19T12:44:53.580Z,4.05
2018-07-19T12:47:22.211Z,4.00
2018-07-19T12:49:50.832Z,4.20
2018-07-19T12:52:19.343Z,4.75
2018-07-19T12:54:47.870Z,3.98
2018-07-19T12:57:16.462Z,4.03
2018-07-19T12:59:44.976Z,3.33
2018-07-19T13:02:13.703Z,4.28
2018-07-19T13:04:42.477Z,4.47
2018-07-19T13:07:11.124Z,4.20
2018-07-19T13:09:39.948Z,4.17
2018-07-19T13:12:08.595Z,3.92
2018-07-19T13:14:37.235Z,3.90
2018-07-19T13:17:05.901Z,3.73
2018-07-19T13:19:34.638Z,4.33
2018-07-19T13:22:03.340Z,4.47
2018-07-19T13:24:31.911Z,4.20
2018-07-19T13:27:00.521Z,4.08
2018-07-19T13:29:29.116Z,4.10
2018-07-19T13:31:58.000Z,3.73
2018-07-19T13:34:26.629Z,4.00
2018-07-19T13:36:55.288Z,4.33
2018-07-19T13:39:23.927Z,3.60
2018-07-19T13:41:52.556Z,4.00
2018-07-19T13:44:21.115Z,4.10
2018-07-19T13:46:49.724Z,4.13
2018-07-19T13:49:18.347Z,4.10
2018-07-19T13:51:46.863Z,4.13
2018-07-19T13:55:18.020Z,4.17
2018-07-19T13:57:46.684Z,3.73
2018-07-19T14:00:15.305Z,5.30
2018-07-19T14:02:43.866Z,4.07
2018-07-19T14:05:12.521Z,4.33
2018-07-19T14:07:41.076Z,4.00
2018-07-19T14:10:09.611Z,4.30
2018-07-19T14:12:38.155Z,4.30
2018-07-19T14:15:07.426Z,5.47
2018-07-19T14:17:36.181Z,4.63
2018-07-19T14:20:05.111Z,4.43
2018-07-19T14:22:33.894Z,4.23
2018-07-19T14:25:02.454Z,4.00
2018-07-19T14:27:30.979Z,4.40
2018-07-19T14:30:00.074Z,4.50
2018-07-19T14:32:28.663Z,4.40
2018-07-19T14:34:57.272Z,4.60
2018-07-19T14:37:26.003Z,4.50
2018-07-19T14:39:54.604Z,3.80
2018-07-19T14:42:23.247Z,4.37
2018-07-19T14:44:51.821Z,4.33
2018-07-19T14:47:20.360Z,4.13
2018-07-19T14:49:49.352Z,5.83
2018-07-19T14:52:18.025Z,4.50
2018-07-19T14:54:46.670Z,4.30
2018-07-19T14:57:15.309Z,5.10
2018-07-19T14:59:44.075Z,4.57
2018-07-19T15:02:12.835Z,4.40
2018-07-19T15:04:41.430Z,4.40
2018-07-19T15:07:10.044Z,4.40
2018-07-19T15:09:38.573Z,4.93
2018-07-19T15:12:07.729Z,5.00
2018-07-19T15:14:36.305Z,4.97
2018-07-19T15:17:04.861Z,5.63
2018-07-19T15:19:33.486Z,6.20
2018-07-19T15:22:01.962Z,4.97
2018-07-19T15:24:30.600Z,4.70
2018-07-19T15:26:59.098Z,5.10
2018-07-19T15:29:27.825Z,4.17
2018-07-19T15:31:56.361Z,4.77
2018-07-19T15:34:24.928Z,4.83
2018-07-19T15:36:53.545Z,4.37
2018-07-19T15:39:22.138Z,4.30
2018-07-19T15:41:50.709Z,4.93
2018-07-19T15:44:19.295Z,4.87
2018-07-19T15:46:47.987Z,4.60
2018-07-19T15:49:16.732Z,4.30
2018-07-19T15:51:45.489Z,4.70
2018-07-19T15:54:14.172Z,4.70
2018-07-19T15:56:42.791Z,4.53
2018-07-19T15:59:11.427Z,4.37
2018-07-19T16:01:40.041Z,5.00
2018-07-19T16:04:08.701Z,4.83
2018-07-19T16:06:37.239Z,4.30
2018-07-19T16:09:08.686Z,4.73
2018-07-19T16:11:37.341Z,4.80
2018-07-19T16:14:06.360Z,5.30
2018-07-19T16:16:35.197Z,5.33
2018-07-19T16:19:03.785Z,4.53
2018-07-19T16:21:32.707Z,4.87
2018-07-19T16:24:01.310Z,4.77
2018-07-19T16:26:29.857Z,4.73
2018-07-19T16:28:58.593Z,5.93
2018-07-19T16:31:27.178Z,7.50
2018-07-19T16:33:55.903Z,5.90
2018-07-19T16:36:24.484Z,4.90
2018-07-19T16:38:53.041Z,4.93
2018-07-19T16:41:21.653Z,5.10
2018-07-19T16:43:50.212Z,5.27
2018-07-19T16:46:18.762Z,5.33
2018-07-19T16:48:47.315Z,4.80
2018-07-19T16:51:16.079Z,4.90
2018-07-19T16:53:45.658Z,5.53
2018-07-19T16:56:14.249Z,5.93
2018-07-19T16:58:43.565Z,5.20
2018-07-19T17:01:12.095Z,5.47
2018-07-19T17:03:40.607Z,7.10
2018-07-19T17:06:09.868Z,7.50
2018-07-19T17:08:38.419Z,7.53
2018-07-19T17:11:07.025Z,8.07
2018-07-19T17:13:35.797Z,11.17
2018-07-19T17:16:04.555Z,6.53
2018-07-19T17:18:33.092Z,6.07
2018-07-19T17:21:01.855Z,5.53
2018-07-19T17:23:30.597Z,4.93
2018-07-19T17:25:59.183Z,5.23
2018-07-19T17:28:27.755Z,5.00
2018-07-19T17:30:56.550Z,4.87
2018-07-19T17:33:25.329Z,5.17
2018-07-19T17:35:54.074Z,5.87
2018-07-19T17:38:22.753Z,5.20
2018-07-19T17:40:51.411Z,5.50
2018-07-19T17:43:20.196Z,5.40
2018-07-19T17:45:48.977Z,6.83
2018-07-19T17:48:17.620Z,5.90
2018-07-19T17:50:46.193Z,5.50
2018-07-19T17:53:14.790Z,6.03
2018-07-19T17:55:43.433Z,5.00
2018-07-19T17:58:12.110Z,5.60
2018-07-19T18:00:40.758Z,5.63
2018-07-19T18:03:09.310Z,5.17
2018-07-19T18:05:37.869Z,5.57
2018-07-19T18:08:07.365Z,5.93
2018-07-19T18:10:36.009Z,5.47
2018-07-19T18:13:04.584Z,5.47
2018-07-19T18:15:33.892Z,5.07
2018-07-19T18:18:02.510Z,4.37
2018-07-19T18:20:31.009Z,5.10
2018-07-19T18:23:00.490Z,4.80
2018-07-19T18:25:29.209Z,4.53
2018-07-19T18:27:57.882Z,4.90
2018-07-19T18:30:26.830Z,5.07
2018-07-19T18:32:55.494Z,4.60
2018-07-19T18:35:24.203Z,4.90
2018-07-19T18:37:53.064Z,5.40
2018-07-19T18:40:21.635Z,4.93
2018-07-19T18:42:50.300Z,5.50
2018-07-19T18:45:18.880Z,5.07
2018-07-19T18:47:47.461Z,5.43
2018-07-19T18:50:16.799Z,5.03
2018-07-19T18:52:45.710Z,5.33
2018-07-19T18:55:14.407Z,5.07
2018-07-19T18:57:43.040Z,5.20
2018-07-19T19:00:11.701Z,5.03
2018-07-19T19:02:40.320Z,4.90
2018-07-19T19:05:08.882Z,4.80
2018-07-19T19:07:37.459Z,4.97
2018-07-19T19:10:06.112Z,4.97
2018-07-19T19:12:34.957Z,5.13
2018-07-19T19:15:03.688Z,4.80
2018-07-19T19:17:32.330Z,5.03
2018-07-19T19:20:00.896Z,5.17
2018-07-19T19:22:29.492Z,4.93
2018-07-19T19:24:58.024Z,5.10
2018-07-19T19:27:26.594Z,4.80
2018-07-19T19:29:55.281Z,5.30
2018-07-19T19:32:23.827Z,4.50
2018-07-19T19:34:52.437Z,5.53
2018-07-19T19:37:21.001Z,5.27
2018-07-19T19:39:49.684Z,4.60
2018-07-19T19:42:18.248Z,5.00
2018-07-19T19:44:46.872Z,5.03
2018-07-19T19:47:15.408Z,5.20
2018-07-19T19:49:43.965Z,4.87
2018-07-19T19:52:12.465Z,5.50
2018-07-19T19:54:41.074Z,4.67
2018-07-19T19:57:09.556Z,4.20
2018-07-19T19:59:38.181Z,4.10
2018-07-19T20:02:06.838Z,5.10
2018-07-19T20:04:35.569Z,5.20
2018-07-19T20:07:04.087Z,4.90
2018-07-19T20:09:32.722Z,4.80
2018-07-19T20:12:01.399Z,4.97
2018-07-19T20:14:29.963Z,5.67
2018-07-19T20:16:58.960Z,4.77
2018-07-19T20:19:27.426Z,4.73
2018-07-19T20:21:56.029Z,5.83
2018-07-19T20:24:24.794Z,4.53
2018-07-19T20:26:53.291Z,4.40
2018-07-19T20:29:21.762Z,4.27
2018-07-19T20:31:50.290Z,4.53
2018-07-19T20:34:20.564Z,4.77
2018-07-19T20:36:47.549Z,4.37
2018-07-19T20:39:16.219Z,4.90
2018-07-19T20:41:46.244Z,4.80
2018-07-19T20:44:16.301Z,5.10
2018-07-19T20:46:45.422Z,4.83
2018-07-19T20:49:13.936Z,4.57
2018-07-19T20:51:42.500Z,4.87
2018-07-19T20:54:11.149Z,5.40
2018-07-19T20:56:40.684Z,5.50
2018-07-19T20:59:09.342Z,5.27
2018-07-19T21:01:37.982Z,5.63
2018-07-19T21:04:07.734Z,5.10
2018-07-19T21:06:36.288Z,5.17
2018-07-19T21:09:07.969Z,5.07
2018-07-19T21:11:36.478Z,4.90
2018-07-19T21:14:05.055Z,5.27
2018-07-19T21:16:33.546Z,4.77
2018-07-19T21:19:02.504Z,5.17
2018-07-19T21:21:31.124Z,4.97
2018-07-19T21:23:59.769Z,5.43
2018-07-19T21:26:28.377Z,5.13
2018-07-19T21:28:56.877Z,4.80
2018-07-19T21:31:25.459Z,4.93
2018-07-19T21:33:54.027Z,5.23
2018-07-19T21:36:22.601Z,5.20
2018-07-19T21:38:51.265Z,5.13
2018-07-19T21:41:19.872Z,5.30
2018-07-19T21:43:48.491Z,5.40
2018-07-19T21:46:17.062Z,5.93
2018-07-19T21:48:45.682Z,5.40
2018-07-19T21:51:14.189Z,5.43
2018-07-19T21:53:42.824Z,5.70
2018-07-19T21:56:11.512Z,5.53
2018-07-19T21:58:40.051Z,5.60
2018-07-19T22:01:11.041Z,5.73
2018-07-19T22:03:39.899Z,5.83
2018-07-19T22:06:09.060Z,5.73
2018-07-19T22:08:37.680Z,5.90
2018-07-19T22:11:06.261Z,5.13
2018-07-19T22:13:34.803Z,5.90
2018-07-19T22:16:03.341Z,5.40
2018-07-19T22:18:31.866Z,5.40
2018-07-19T22:21:00.473Z,5.70
2018-07-19T22:23:29.082Z,5.17
2018-07-19T22:25:57.759Z,5.47
2018-07-19T22:28:26.284Z,5.40
2018-07-19T22:30:54.788Z,5.17
2018-07-19T22:33:23.222Z,5.40
2018-07-19T22:35:52.407Z,5.67
2018-07-19T22:38:20.888Z,6.07
2018-07-19T22:40:49.463Z,5.73
2018-07-19T22:43:18.004Z,5.00
2018-07-19T22:45:46.483Z,4.77
2018-07-19T22:48:15.097Z,5.47
2018-07-19T22:50:43.600Z,5.73
2018-07-19T22:53:12.186Z,5.17
2018-07-19T22:55:40.697Z,5.30
2018-07-19T22:58:09.249Z,6.03
2018-07-19T23:00:37.739Z,5.77
2018-07-19T23:03:06.244Z,5.87
2018-07-19T23:05:34.808Z,5.80
2018-07-19T23:08:03.333Z,5.60
2018-07-19T23:10:31.824Z,5.30
2018-07-19T23:13:00.375Z,5.60
2018-07-19T23:15:28.844Z,5.77
2018-07-19T23:17:57.335Z,6.13
2018-07-19T23:20:25.835Z,5.53
2018-07-19T23:22:56.440Z,5.50
2018-07-19T23:25:25.068Z,5.33
2018-07-19T23:27:54.076Z,5.73
2018-07-19T23:30:24.939Z,5.97
2018-07-19T23:32:53.503Z,5.63
2018-07-19T23:35:23.345Z,5.50
2018-07-19T23:37:53.980Z,4.90
2018-07-19T23:40:26.233Z,6.00
2018-07-19T23:43:30.052Z,5.90
2018-07-19T23:46:02.366Z,5.60
2018-07-19T23:48:30.929Z,5.70
2018-07-19T23:50:59.431Z,6.10
2018-07-19T23:53:27.960Z,5.60
2018-07-19T23:55:56.466Z,5.57
2018-07-19T23:58:24.963Z,6.20
